Flugplatz Stade

Für EDHS sind keine METAR/TAF Berichte vorhanden.
Es werden die Flugwettermeldungen vom Flugplatz Hamburg-Finkenwerder in 22 km Entfernung angezeigt.

Bericht für EDHI

vom 27.09. um 00:50 UTC

Wind 9 kt aus 90°

Sichtweite 10 km oder mehr

bedeckt in 1500 ft

Temperatur 13.0°C

Taupunkt 10.0°C

Luftfeuchtigkeit 82%

Luftdruck 996 hPa

EDHI 270050Z AUTO 09009KT 040V120 9999 // OVC015/// 13/10 Q0996
Keine Prognose (TAF) verfügbar.
Impressum